createdAt,value
2022-10-11T00:02:08.492Z,71.28
2022-10-11T00:04:35.257Z,70.91
2022-10-11T00:07:02.197Z,70.33
2022-10-11T00:09:28.936Z,71.60
2022-10-11T00:11:56.814Z,70.19
2022-10-11T00:14:26.198Z,70.41
2022-10-11T00:16:54.098Z,69.67
2022-10-11T00:19:21.578Z,70.51
2022-10-11T00:21:48.589Z,70.13
2022-10-11T00:24:15.599Z,69.02
2022-10-11T00:26:46.540Z,68.07
2022-10-11T00:29:14.390Z,68.68
2022-10-11T00:31:41.320Z,69.64
2022-10-11T00:34:08.633Z,69.15
2022-10-11T00:36:35.531Z,68.00
2022-10-11T00:39:02.543Z,68.36
2022-10-11T00:41:29.367Z,68.98
2022-10-11T00:44:21.008Z,69.93
2022-10-11T00:47:18.861Z,71.46
2022-10-11T00:49:54.291Z,72.29
2022-10-11T00:52:29.246Z,70.83
2022-10-11T00:54:58.384Z,69.97
2022-10-11T00:57:28.036Z,70.08
2022-10-11T00:59:56.826Z,70.40
2022-10-11T01:02:24.328Z,70.61
2022-10-11T01:05:05.692Z,69.72
2022-10-11T01:07:39.376Z,68.90
2022-10-11T01:10:06.283Z,68.20
2022-10-11T01:12:33.597Z,69.10
2022-10-11T01:15:26.868Z,67.99
2022-10-11T01:18:01.234Z,67.36
2022-10-11T01:20:58.122Z,66.55
2022-10-11T01:24:17.791Z,66.07
2022-10-11T01:27:31.213Z,65.46
2022-10-11T01:30:42.334Z,65.11
2022-10-11T01:33:20.947Z,65.27
2022-10-11T01:35:53.728Z,65.23
2022-10-11T01:39:07.890Z,66.44
2022-10-11T01:41:42.842Z,66.27
2022-10-11T01:44:12.541Z,66.59
2022-10-11T01:46:39.524Z,67.72
2022-10-11T01:49:06.552Z,67.83
2022-10-11T01:51:37.877Z,67.96
2022-10-11T01:54:14.621Z,67.98
2022-10-11T01:57:22.746Z,68.05
2022-10-11T02:00:13.934Z,69.54
2022-10-11T02:02:47.348Z,69.95
2022-10-11T02:05:34.265Z,68.85
2022-10-11T02:08:52.442Z,69.02
2022-10-11T02:11:26.928Z,68.25
2022-10-11T02:14:01.056Z,68.81
2022-10-11T02:16:34.255Z,68.25
2022-10-11T02:19:04.487Z,67.81
2022-10-11T02:21:34.607Z,68.13
2022-10-11T02:24:05.970Z,66.47
2022-10-11T02:26:34.517Z,66.76
2022-10-11T02:29:08.646Z,66.89
2022-10-11T02:31:36.516Z,66.99
2022-10-11T02:34:09.893Z,66.77
2022-10-11T02:36:47.392Z,67.14
2022-10-11T02:39:22.255Z,66.98
2022-10-11T02:41:52.307Z,66.90
2022-10-11T02:44:32.430Z,67.52
2022-10-11T02:47:01.006Z,68.37
2022-10-11T02:49:30.024Z,68.84
2022-10-11T02:51:58.582Z,68.74
2022-10-11T02:54:26.762Z,67.75
2022-10-11T02:56:53.643Z,67.79
2022-10-11T02:59:20.470Z,67.67
2022-10-11T03:01:47.364Z,66.74
2022-10-11T03:04:14.324Z,67.32
2022-10-11T03:06:41.156Z,66.59
2022-10-11T03:09:08.018Z,67.09
2022-10-11T03:11:34.870Z,67.94
2022-10-11T03:14:01.711Z,68.24
2022-10-11T03:16:28.608Z,68.42
2022-10-11T03:18:55.399Z,67.73
2022-10-11T03:21:22.175Z,68.78
2022-10-11T03:23:49.589Z,70.53
2022-10-11T03:26:16.445Z,70.91
2022-10-11T03:28:43.451Z,70.89
2022-10-11T03:31:10.255Z,70.84
2022-10-11T03:33:37.008Z,70.75
2022-10-11T03:36:04.239Z,70.21
2022-10-11T03:38:31.318Z,71.16
2022-10-11T03:40:58.111Z,71.96
2022-10-11T03:43:25.083Z,71.51
2022-10-11T03:45:51.901Z,71.13
2022-10-11T03:48:18.785Z,69.88
2022-10-11T03:50:45.667Z,69.91
2022-10-11T03:53:12.509Z,69.47
2022-10-11T03:55:40.089Z,69.61
2022-10-11T03:58:08.151Z,69.12
2022-10-11T04:00:35.706Z,68.77
2022-10-11T04:03:02.665Z,69.67
2022-10-11T04:05:30.381Z,70.08
2022-10-11T04:07:57.264Z,70.73
2022-10-11T04:10:24.126Z,69.79
2022-10-11T04:12:51.064Z,69.58
2022-10-11T04:15:17.838Z,69.36
2022-10-11T04:17:46.899Z,69.93
2022-10-11T04:20:14.068Z,68.84
2022-10-11T04:22:40.874Z,64.70
2022-10-11T04:25:08.464Z,65.02
2022-10-11T04:27:35.713Z,64.35
2022-10-11T04:30:02.768Z,63.09
2022-10-11T04:32:29.535Z,63.06
2022-10-11T04:34:56.352Z,62.54
2022-10-11T04:40:24.027Z,63.05
2022-10-11T04:42:50.865Z,62.59
2022-10-11T04:45:17.703Z,63.37
2022-10-11T04:47:49.073Z,63.34
2022-10-11T04:50:16.208Z,62.28
2022-10-11T04:52:42.975Z,61.98
2022-10-11T04:55:10.837Z,61.00
2022-10-11T04:57:37.646Z,61.09
2022-10-11T05:00:05.434Z,61.16
2022-10-11T05:02:32.431Z,61.48
2022-10-11T05:04:59.435Z,60.53
2022-10-11T05:07:26.180Z,59.70
2022-10-11T05:09:53.010Z,59.10
2022-10-11T05:12:19.852Z,59.65
2022-10-11T05:14:49.747Z,60.17
2022-10-11T05:17:16.714Z,60.71
2022-10-11T05:19:43.537Z,60.00
2022-10-11T05:22:10.495Z,59.52
2022-10-11T05:24:37.551Z,59.35
2022-10-11T05:27:04.333Z,59.45
2022-10-11T05:29:31.060Z,59.60
2022-10-11T05:31:57.880Z,59.50
2022-10-11T05:34:24.700Z,59.84
2022-10-11T05:36:51.522Z,60.24
2022-10-11T05:39:18.396Z,60.15
2022-10-11T05:41:45.272Z,59.67
2022-10-11T05:44:12.417Z,59.45
2022-10-11T05:46:39.439Z,59.67
2022-10-11T05:49:06.307Z,58.84
2022-10-11T05:51:33.142Z,59.18
2022-10-11T05:54:00.256Z,59.32
2022-10-11T05:56:27.125Z,59.11
2022-10-11T05:58:54.956Z,59.37
2022-10-11T06:01:27.703Z,59.02
2022-10-11T06:03:54.627Z,58.28
2022-10-11T06:06:21.961Z,59.25
2022-10-11T06:08:48.916Z,58.69
2022-10-11T06:11:21.882Z,58.72
2022-10-11T06:13:48.950Z,59.60
2022-10-11T06:16:15.881Z,59.11
2022-10-11T06:18:42.730Z,59.39
2022-10-11T06:21:09.680Z,60.10
2022-10-11T06:23:36.529Z,60.27
2022-10-11T06:26:08.570Z,60.33
2022-10-11T06:28:37.138Z,59.60
2022-10-11T06:31:06.581Z,60.06
2022-10-11T06:33:34.266Z,59.49
2022-10-11T06:36:08.329Z,57.76
2022-10-11T06:38:35.344Z,59.04
2022-10-11T06:41:19.320Z,58.08
2022-10-11T06:43:46.374Z,57.91
2022-10-11T06:46:13.205Z,57.88
2022-10-11T06:48:42.215Z,57.26
2022-10-11T06:51:10.079Z,57.37
2022-10-11T06:53:37.052Z,56.07
2022-10-11T06:56:06.204Z,55.13
2022-10-11T06:58:33.875Z,56.39
2022-10-11T07:01:13.190Z,56.61
2022-10-11T07:03:40.101Z,56.85
2022-10-11T07:06:26.805Z,56.87
2022-10-11T07:08:53.918Z,57.63
2022-10-11T07:11:27.376Z,58.16
2022-10-11T07:13:57.031Z,56.75
2022-10-11T07:16:24.711Z,57.55
2022-10-11T07:19:00.186Z,57.09
2022-10-11T07:21:28.817Z,57.35
2022-10-11T07:23:55.704Z,56.37
2022-10-11T07:26:22.843Z,57.19
2022-10-11T07:28:49.975Z,56.68
2022-10-11T07:31:24.911Z,56.46
2022-10-11T07:33:51.728Z,55.31
2022-10-11T07:36:18.673Z,55.22
2022-10-11T07:38:47.047Z,56.06
2022-10-11T07:41:14.356Z,56.06
2022-10-11T07:43:41.647Z,55.56
2022-10-11T07:46:09.165Z,55.29
2022-10-11T07:48:36.942Z,54.04
2022-10-11T07:51:29.946Z,53.66
2022-10-11T07:53:57.259Z,53.85
2022-10-11T07:56:28.902Z,54.40
2022-10-11T07:58:58.885Z,53.92
2022-10-11T08:01:28.328Z,54.85
2022-10-11T08:03:55.633Z,53.80
2022-10-11T08:06:24.308Z,53.65
2022-10-11T08:08:51.104Z,52.31
2022-10-11T08:11:27.090Z,52.22
2022-10-11T08:13:54.735Z,51.81
2022-10-11T08:16:22.141Z,51.04
2022-10-11T08:18:48.912Z,51.10
2022-10-11T08:21:17.347Z,49.81
2022-10-11T08:23:44.826Z,50.50
2022-10-11T08:26:11.938Z,50.40
2022-10-11T08:28:38.919Z,50.87
2022-10-11T08:31:06.286Z,49.94
2022-10-11T08:33:33.264Z,50.07
2022-10-11T08:36:04.927Z,48.92
2022-10-11T08:38:32.412Z,48.91
2022-10-11T08:41:01.017Z,49.02
2022-10-11T08:43:51.528Z,49.09
2022-10-11T08:46:26.182Z,49.43
2022-10-11T08:48:53.340Z,48.35
2022-10-11T08:51:31.645Z,49.23
2022-10-11T08:54:07.340Z,47.61
2022-10-11T08:56:37.282Z,48.34
2022-10-11T08:59:13.030Z,47.60
2022-10-11T09:02:02.800Z,47.73
2022-10-11T09:04:29.704Z,47.46
2022-10-11T09:07:09.344Z,47.19
2022-10-11T09:09:59.018Z,46.78
2022-10-11T09:12:58.117Z,46.74
2022-10-11T09:15:42.396Z,46.20
2022-10-11T09:18:27.399Z,45.82
2022-10-11T09:21:10.075Z,45.80
2022-10-11T09:24:02.305Z,47.59
2022-10-11T09:26:38.416Z,45.92
2022-10-11T09:29:27.996Z,45.23
2022-10-11T09:31:57.277Z,44.24
2022-10-11T09:34:29.980Z,44.95
2022-10-11T09:37:18.115Z,43.90
2022-10-11T09:40:01.993Z,43.51
2022-10-11T09:42:28.906Z,43.88
2022-10-11T09:44:58.007Z,44.23
2022-10-11T09:47:27.133Z,43.60
2022-10-11T09:50:00.762Z,44.13
2022-10-11T09:52:27.538Z,43.65
2022-10-11T09:54:59.885Z,43.27
2022-10-11T09:57:36.463Z,42.35
2022-10-11T10:00:12.123Z,43.28
2022-10-11T10:02:47.466Z,42.52
2022-10-11T10:05:19.908Z,40.82
2022-10-11T10:08:21.905Z,40.74
2022-10-11T10:10:50.116Z,39.55
2022-10-11T10:13:21.527Z,39.95
2022-10-11T10:15:51.869Z,40.22
2022-10-11T10:18:29.500Z,38.30
2022-10-11T10:20:58.538Z,38.02
2022-10-11T10:23:39.635Z,36.17
2022-10-11T10:26:25.345Z,38.16
2022-10-11T10:29:11.000Z,39.22
2022-10-11T10:32:13.918Z,38.10
2022-10-11T10:35:06.536Z,37.34
2022-10-11T10:37:40.920Z,36.65
2022-10-11T10:40:17.576Z,34.71
2022-10-11T10:42:44.461Z,35.04
2022-10-11T10:45:20.869Z,36.54
2022-10-11T10:48:23.196Z,36.60
2022-10-11T10:50:56.017Z,37.96
2022-10-11T10:53:25.594Z,38.67
2022-10-11T10:56:00.840Z,37.43
2022-10-11T10:59:01.472Z,37.85
2022-10-11T11:01:32.325Z,38.42
2022-10-11T11:04:24.350Z,37.57
2022-10-11T11:06:51.125Z,36.81
2022-10-11T11:09:21.025Z,36.18
2022-10-11T11:12:06.750Z,35.29
2022-10-11T11:14:58.393Z,34.49
2022-10-11T11:17:46.959Z,34.95
2022-10-11T11:20:42.724Z,33.95
2022-10-11T11:23:23.759Z,35.99
2022-10-11T11:26:10.405Z,36.76
2022-10-11T11:29:08.174Z,36.40
2022-10-11T11:32:12.582Z,36.42
2022-10-11T11:34:52.019Z,36.92
2022-10-11T11:37:27.835Z,37.03
2022-10-11T11:40:00.435Z,36.30
2022-10-11T11:42:35.787Z,36.21
2022-10-11T11:45:23.897Z,37.09
2022-10-11T11:48:06.870Z,36.29
2022-10-11T11:50:46.704Z,35.19
2022-10-11T11:53:22.165Z,35.01
2022-10-11T11:56:01.870Z,34.88
2022-10-11T11:58:39.591Z,36.06
2022-10-11T12:01:32.449Z,34.74
2022-10-11T12:04:05.225Z,33.47
2022-10-11T12:06:47.760Z,35.06
2022-10-11T12:09:23.471Z,33.17
2022-10-11T12:11:54.509Z,34.14
2022-10-11T12:14:28.132Z,33.27
2022-10-11T12:17:17.441Z,33.34
2022-10-11T12:20:14.341Z,32.96
2022-10-11T12:22:54.311Z,33.12
2022-10-11T12:25:33.218Z,33.29
2022-10-11T12:28:02.774Z,33.11
2022-10-11T12:30:44.602Z,32.84
2022-10-11T12:33:46.174Z,32.30
2022-10-11T12:36:28.322Z,33.66
2022-10-11T12:39:19.957Z,32.87
2022-10-11T12:41:51.958Z,33.35
2022-10-11T12:44:18.668Z,32.72
2022-10-11T12:46:51.169Z,32.59
2022-10-11T12:49:26.514Z,31.78
2022-10-11T12:52:01.034Z,32.65
2022-10-11T12:54:37.389Z,32.42
2022-10-11T12:57:46.360Z,33.02
2022-10-11T13:00:42.099Z,31.90
2022-10-11T13:03:32.914Z,33.56
2022-10-11T13:06:04.901Z,34.11
2022-10-11T13:08:34.460Z,34.36
2022-10-11T13:11:10.982Z,35.36
2022-10-11T13:13:44.232Z,34.40
2022-10-11T13:16:18.917Z,34.61
2022-10-11T13:18:48.146Z,35.25
2022-10-11T13:21:31.803Z,35.71
2022-10-11T13:24:01.688Z,35.63
2022-10-11T13:26:31.510Z,35.60
2022-10-11T13:28:59.026Z,35.34
2022-10-11T13:31:26.350Z,35.56
2022-10-11T13:33:56.009Z,35.22
2022-10-11T13:36:25.958Z,35.42
2022-10-11T13:39:01.382Z,35.25
2022-10-11T13:41:30.455Z,34.68
2022-10-11T13:43:59.299Z,35.15
2022-10-11T13:46:31.145Z,35.33
2022-10-11T13:49:05.701Z,35.24
2022-10-11T13:51:38.010Z,35.49
2022-10-11T13:54:13.627Z,34.93
2022-10-11T13:56:50.177Z,35.17
2022-10-11T13:59:23.361Z,35.52
2022-10-11T14:02:19.354Z,35.92
2022-10-11T14:04:46.881Z,36.28
2022-10-11T14:07:30.714Z,36.88
2022-10-11T14:09:57.596Z,37.32
2022-10-11T14:12:29.234Z,37.93
2022-10-11T14:14:55.969Z,38.01
2022-10-11T14:17:43.130Z,38.04
2022-10-11T14:20:17.494Z,38.34
2022-10-11T14:22:44.554Z,38.10
2022-10-11T14:25:12.082Z,37.92
2022-10-11T14:27:39.553Z,37.79
2022-10-11T14:30:25.444Z,37.50
2022-10-11T14:32:55.327Z,37.91
2022-10-11T14:35:28.032Z,37.63
2022-10-11T14:37:54.977Z,37.27
2022-10-11T14:40:28.874Z,37.53
2022-10-11T14:42:55.795Z,37.49
2022-10-11T14:45:23.581Z,37.99
2022-10-11T14:47:50.736Z,37.97
2022-10-11T14:50:51.975Z,38.24
2022-10-11T14:53:18.907Z,38.38
2022-10-11T14:55:45.752Z,38.06
2022-10-11T14:58:18.473Z,37.95
2022-10-11T15:00:46.150Z,38.12
2022-10-11T15:03:15.698Z,38.51
2022-10-11T15:05:43.909Z,38.47
2022-10-11T15:08:12.172Z,38.61
2022-10-11T15:10:41.181Z,38.89
2022-10-11T15:13:09.187Z,38.48
2022-10-11T15:18:58.099Z,39.20
2022-10-11T15:21:26.919Z,38.96
2022-10-11T15:23:54.888Z,39.29
2022-10-11T15:26:29.841Z,39.20
2022-10-11T15:28:57.734Z,39.25
2022-10-11T15:31:24.603Z,39.06
2022-10-11T15:33:52.441Z,39.41
2022-10-11T15:36:22.109Z,39.42
2022-10-11T15:38:49.769Z,39.32
2022-10-11T15:41:18.677Z,39.70
2022-10-11T15:43:46.592Z,39.71
2022-10-11T15:46:19.938Z,40.00
2022-10-11T15:48:47.201Z,40.26
2022-10-11T15:51:15.647Z,40.27
2022-10-11T15:53:45.457Z,40.57
2022-10-11T15:56:17.153Z,40.71
2022-10-11T15:58:44.493Z,40.76
2022-10-11T16:01:17.802Z,40.76
2022-10-11T16:03:45.495Z,40.56
2022-10-11T16:06:13.112Z,40.93
2022-10-11T16:08:40.496Z,40.78
2022-10-11T16:11:09.457Z,40.75
2022-10-11T16:13:36.640Z,40.32
2022-10-11T16:16:05.813Z,40.50
2022-10-11T16:22:39.816Z,40.47
2022-10-11T16:25:07.022Z,40.47
2022-10-11T16:27:34.106Z,40.41
2022-10-11T16:30:01.178Z,40.32
2022-10-11T16:32:29.101Z,40.22
2022-10-11T16:34:55.933Z,40.19
2022-10-11T16:37:22.748Z,40.30
2022-10-11T16:39:49.595Z,40.21
2022-10-11T16:42:16.425Z,40.26
2022-10-11T16:44:43.167Z,40.01
2022-10-11T16:47:09.949Z,40.28
2022-10-11T16:49:36.769Z,40.20
2022-10-11T16:52:03.694Z,40.21
2022-10-11T16:54:31.580Z,40.94
2022-10-11T16:56:59.427Z,41.97
2022-10-11T16:59:26.460Z,41.75
2022-10-11T17:01:53.338Z,41.62
2022-10-11T17:04:20.189Z,41.29
2022-10-11T17:06:47.117Z,41.09
2022-10-11T17:09:13.883Z,41.34
2022-10-11T17:11:40.755Z,40.99
2022-10-11T17:14:07.647Z,41.88
2022-10-11T17:16:35.569Z,42.49
2022-10-11T17:19:03.089Z,43.42
2022-10-11T17:21:29.875Z,44.36
2022-10-11T17:23:56.898Z,43.20
2022-10-11T17:26:26.221Z,44.11
2022-10-11T17:28:57.546Z,44.17
2022-10-11T17:31:25.300Z,44.07
2022-10-11T17:33:52.236Z,43.26
2022-10-11T17:36:23.772Z,43.29
2022-10-11T17:38:51.797Z,43.24
2022-10-11T17:41:19.431Z,43.53
2022-10-11T17:43:47.271Z,43.51
2022-10-11T17:46:16.016Z,43.60
2022-10-11T17:48:42.860Z,43.33
2022-10-11T17:51:15.989Z,43.56
2022-10-11T17:53:43.311Z,43.26
2022-10-11T17:56:13.092Z,43.28
2022-10-11T17:58:40.769Z,44.05
2022-10-11T18:01:11.112Z,43.76
2022-10-11T18:03:38.714Z,43.72
2022-10-11T18:06:14.009Z,43.71
2022-10-11T18:08:47.021Z,43.50
2022-10-11T18:11:16.504Z,43.40
2022-10-11T18:13:43.868Z,43.44
2022-10-11T18:16:11.488Z,43.36
2022-10-11T18:19:01.829Z,43.30
2022-10-11T18:21:34.034Z,43.21
2022-10-11T18:24:13.838Z,43.19
2022-10-11T18:26:40.650Z,43.41
2022-10-11T18:29:07.728Z,43.50
2022-10-11T18:31:35.139Z,43.58
2022-10-11T18:34:03.381Z,43.52
2022-10-11T18:36:31.958Z,43.74
2022-10-11T18:39:01.966Z,43.83
2022-10-11T18:41:33.027Z,44.00
2022-10-11T18:44:02.394Z,44.09
2022-10-11T18:46:29.729Z,44.24
2022-10-11T18:48:57.760Z,44.18
2022-10-11T18:51:27.027Z,44.12
2022-10-11T18:53:54.922Z,44.29
2022-10-11T18:56:23.207Z,44.13
2022-10-11T18:58:51.039Z,43.66
2022-10-11T19:01:24.015Z,43.19
2022-10-11T19:03:53.113Z,42.94
2022-10-11T19:06:26.085Z,43.75
2022-10-11T19:09:01.118Z,44.65
2022-10-11T19:11:28.465Z,43.30
2022-10-11T19:13:57.135Z,43.76
2022-10-11T19:16:24.580Z,44.22
2022-10-11T19:18:52.091Z,44.43
2022-10-11T19:21:19.845Z,44.23
2022-10-11T19:23:48.312Z,45.24
2022-10-11T19:26:20.959Z,44.91
2022-10-11T19:28:49.241Z,46.12
2022-10-11T19:31:16.415Z,45.31
2022-10-11T19:33:44.920Z,45.53
2022-10-11T19:36:13.906Z,44.63
2022-10-11T19:38:44.828Z,43.43
2022-10-11T19:41:13.424Z,43.47
2022-10-11T19:43:40.225Z,43.44
2022-10-11T19:46:09.802Z,43.36
2022-10-11T19:48:37.906Z,43.54
2022-10-11T19:51:11.035Z,43.66
2022-10-11T19:53:38.425Z,44.90
2022-10-11T19:56:08.441Z,45.43
2022-10-11T19:58:35.444Z,44.91
2022-10-11T20:01:05.257Z,45.43
2022-10-11T20:03:32.480Z,45.14
2022-10-11T20:06:04.540Z,45.25
2022-10-11T20:08:31.848Z,44.68
2022-10-11T20:10:59.644Z,44.75
2022-10-11T20:13:31.163Z,45.14
2022-10-11T20:16:07.115Z,44.99
2022-10-11T20:18:34.390Z,45.68
2022-10-11T20:21:04.551Z,45.10
2022-10-11T20:23:32.398Z,45.36
2022-10-11T20:26:03.759Z,45.27
2022-10-11T20:28:32.100Z,45.32
2022-10-11T20:31:02.635Z,44.80
2022-10-11T20:33:31.200Z,44.92
2022-10-11T20:36:07.210Z,45.26
2022-10-11T20:38:35.956Z,45.49
2022-10-11T20:41:08.063Z,45.96
2022-10-11T20:43:35.403Z,46.25
2022-10-11T20:46:15.562Z,46.09
2022-10-11T20:48:58.852Z,47.60
2022-10-11T20:51:29.332Z,47.14
2022-10-11T20:53:56.070Z,46.64
2022-10-11T20:56:23.122Z,46.85
2022-10-11T20:58:54.347Z,46.92
2022-10-11T21:01:26.967Z,46.74
2022-10-11T21:03:54.406Z,46.75
2022-10-11T21:06:21.230Z,47.25
2022-10-11T21:08:48.009Z,47.10
2022-10-11T21:11:14.914Z,46.33
2022-10-11T21:13:41.721Z,46.87
2022-10-11T21:16:15.909Z,46.52
2022-10-11T21:18:43.052Z,46.40
2022-10-11T21:21:14.377Z,47.76
2022-10-11T21:23:42.123Z,47.61
2022-10-11T21:26:12.656Z,47.80
2022-10-11T21:28:41.091Z,48.23
2022-10-11T21:31:10.568Z,48.69
2022-10-11T21:33:38.707Z,48.47
2022-10-11T21:36:10.653Z,49.01
2022-10-11T21:38:37.933Z,48.38
2022-10-11T21:41:07.562Z,49.94
2022-10-11T21:43:35.840Z,51.30
2022-10-11T21:46:14.481Z,50.51
2022-10-11T21:48:41.392Z,49.54
2022-10-11T21:53:46.409Z,51.67
2022-10-11T21:56:13.172Z,50.89
2022-10-11T21:58:40.024Z,52.04
2022-10-11T22:01:07.082Z,52.12
2022-10-11T22:03:34.030Z,51.85
2022-10-11T22:06:05.123Z,51.52
2022-10-11T22:08:32.497Z,50.93
2022-10-11T22:11:00.745Z,51.10
2022-10-11T22:13:30.045Z,50.66
2022-10-11T22:15:57.098Z,50.74
2022-10-11T22:18:24.951Z,50.58
2022-10-11T22:20:51.764Z,51.36
2022-10-11T22:23:19.130Z,51.12
2022-10-11T22:25:46.418Z,52.09
2022-10-11T22:28:13.340Z,51.26
2022-10-11T22:30:40.249Z,50.60
2022-10-11T22:33:07.035Z,51.41
2022-10-11T22:35:37.509Z,52.01
2022-10-11T22:38:05.907Z,52.55
2022-10-11T22:40:32.773Z,53.04
2022-10-11T22:42:59.646Z,53.73
2022-10-11T22:45:26.568Z,54.38
2022-10-11T22:47:53.309Z,52.85
2022-10-11T22:50:20.105Z,52.61
2022-10-11T22:52:47.109Z,52.88
2022-10-11T22:55:19.591Z,52.80
2022-10-11T22:57:46.900Z,52.34
2022-10-11T23:00:13.954Z,51.71
2022-10-11T23:02:40.695Z,51.78
2022-10-11T23:05:07.839Z,51.80
2022-10-11T23:07:34.651Z,51.85
2022-10-11T23:10:01.779Z,51.51
2022-10-11T23:12:28.613Z,52.04
2022-10-11T23:14:55.322Z,54.12
2022-10-11T23:17:22.087Z,54.84
2022-10-11T23:19:48.921Z,55.38
2022-10-11T23:22:16.100Z,56.82
2022-10-11T23:24:42.906Z,57.78
2022-10-11T23:27:10.006Z,57.49
2022-10-11T23:29:36.804Z,57.75
2022-10-11T23:32:03.650Z,58.55
2022-10-11T23:34:30.657Z,58.30
2022-10-11T23:36:57.597Z,58.44
2022-10-11T23:39:24.503Z,59.00
2022-10-11T23:41:51.337Z,58.90
2022-10-11T23:44:18.210Z,58.27
2022-10-11T23:46:45.096Z,57.17
2022-10-11T23:49:12.375Z,58.54
2022-10-11T23:51:39.624Z,57.97
2022-10-11T23:54:06.732Z,57.80
2022-10-11T23:56:33.788Z,57.50
2022-10-11T23:59:00.565Z,57.51
